Time;durP1;ratioP1;P1;durP2;ratioP2;P2;SDS_P1;SDS_P2;PMS_P1;PMS_P2;Temp;Humidity;BMP_temperature;BMP_pressure;BME280_temperature;BME280_humidity;BME280_pressure;Samples;Min_cycle;Max_cycle;Signal;HPM_P1;HPM_P2
2022/05/04 00:00:38;;;;;;;9.30;2.70;;;9.80;99.30;;;;;;4972295;28;20125;-89
2022/05/04 00:03:04;;;;;;;9.43;2.80;;;9.80;99.40;;;;;;4972344;28;20041;-89
2022/05/04 00:05:31;;;;;;;11.05;3.20;;;9.70;99.70;;;;;;4972097;28;20086;-89
2022/05/04 00:07:56;;;;;;;10.52;2.40;;;9.70;99.80;;;;;;4972324;28;20050;-89
2022/05/04 00:10:22;;;;;;;8.98;2.75;;;9.70;99.90;;;;;;4972182;28;20461;-90
2022/05/04 00:12:48;;;;;;;10.02;2.95;;;9.60;99.90;;;;;;4956135;28;20046;-90
2022/05/04 00:15:13;;;;;;;12.18;2.72;;;9.70;99.90;;;;;;4956035;28;20039;-89
2022/05/04 00:17:39;;;;;;;8.93;2.53;;;9.60;99.90;;;;;;4971813;28;20089;-89
2022/05/04 00:20:05;;;;;;;12.90;3.05;;;9.60;99.90;;;;;;4971602;28;20043;-89
2022/05/04 00:22:31;;;;;;;10.35;2.90;;;9.70;99.90;;;;;;4971863;28;20424;-90
2022/05/04 00:24:57;;;;;;;11.50;2.85;;;9.60;99.90;;;;;;4972029;28;20038;-89
2022/05/04 00:27:24;;;;;;;10.75;3.33;;;9.60;99.90;;;;;;4971811;28;20042;-89
2022/05/04 00:29:49;;;;;;;15.60;3.25;;;9.60;99.90;;;;;;4972184;28;20405;-89
2022/05/04 00:32:17;;;;;;;11.32;2.90;;;9.60;99.90;;;;;;4972016;28;20046;-89
2022/05/04 00:34:43;;;;;;;9.52;3.00;;;9.60;99.90;;;;;;4971971;28;20046;-89
2022/05/04 00:37:09;;;;;;;12.55;3.10;;;9.50;99.90;;;;;;4971461;28;20129;-89
2022/05/04 00:39:35;;;;;;;9.32;3.13;;;9.60;99.90;;;;;;4971789;28;20070;-90
2022/05/04 00:42:13;;;;;;;11.25;3.33;;;9.60;99.90;;;;;;4971500;28;20472;-89
2022/05/04 00:44:40;;;;;;;10.30;2.72;;;9.50;99.90;;;;;;4971788;28;20042;-89
2022/05/04 00:47:06;;;;;;;11.98;2.83;;;9.50;99.90;;;;;;4971758;28;20046;-89
2022/05/04 00:49:32;;;;;;;10.07;3.03;;;9.50;99.90;;;;;;4971722;28;20057;-89
2022/05/04 00:51:58;;;;;;;11.02;2.95;;;9.50;99.90;;;;;;4955530;28;20038;-89
2022/05/04 00:54:24;;;;;;;12.65;2.80;;;9.50;99.90;;;;;;4971965;28;20182;-90
2022/05/04 00:56:51;;;;;;;9.23;2.92;;;9.50;99.90;;;;;;4971752;28;20409;-89
2022/05/04 00:59:16;;;;;;;10.32;3.47;;;9.40;99.90;;;;;;4955704;28;20095;-89
2022/05/04 01:01:42;;;;;;;10.45;2.95;;;9.40;99.90;;;;;;4971639;28;20122;-89
2022/05/04 01:04:08;;;;;;;10.68;3.28;;;9.40;99.90;;;;;;4971869;28;20083;-89
2022/05/04 01:06:34;;;;;;;11.73;3.05;;;9.40;99.90;;;;;;4971614;28;20113;-90
2022/05/04 01:08:59;;;;;;;10.13;2.88;;;9.40;99.90;;;;;;4971676;28;20182;-89
2022/05/04 01:11:25;;;;;;;10.77;3.00;;;9.30;99.90;;;;;;4971253;28;20478;-89
2022/05/04 01:14:09;;;;;;;11.82;3.10;;;9.30;99.90;;;;;;4955553;28;20049;-89
2022/05/04 01:16:37;;;;;;;10.98;2.53;;;9.40;99.90;;;;;;4971692;28;20043;-89
2022/05/04 01:19:03;;;;;;;11.32;2.60;;;9.30;99.90;;;;;;4971258;28;20046;-89
2022/05/04 01:21:28;;;;;;;13.07;4.15;;;9.30;99.90;;;;;;4971067;28;20053;-89
2022/05/04 01:23:54;;;;;;;10.77;3.05;;;9.40;99.90;;;;;;4971714;28;20034;-89
2022/05/04 01:26:20;;;;;;;9.18;2.70;;;9.30;99.90;;;;;;4971548;28;20516;-89
2022/05/04 01:28:46;;;;;;;12.00;3.03;;;9.30;99.90;;;;;;4971405;28;20043;-89
2022/05/04 01:31:12;;;;;;;8.32;2.67;;;9.30;99.90;;;;;;4971278;28;20496;-89
2022/05/04 01:33:39;;;;;;;8.73;2.95;;;9.30;99.90;;;;;;4971123;28;20081;-89
2022/05/04 01:36:06;;;;;;;11.55;2.97;;;9.30;99.90;;;;;;4955212;28;20038;-89
2022/05/04 01:38:32;;;;;;;11.75;3.13;;;9.30;99.90;;;;;;4971664;28;20126;-89
2022/05/04 01:40:58;;;;;;;13.63;3.17;;;9.30;99.90;;;;;;4971180;28;20082;-89
2022/05/04 01:43:23;;;;;;;12.82;3.33;;;9.20;99.90;;;;;;4970845;28;20081;-89
2022/05/04 01:45:49;;;;;;;10.32;2.90;;;9.20;99.90;;;;;;4971415;28;20130;-89
2022/05/04 01:48:15;;;;;;;11.55;3.17;;;9.30;99.90;;;;;;4971202;28;20496;-89
2022/05/04 01:50:40;;;;;;;17.30;4.28;;;9.20;99.90;;;;;;4973304;28;20042;-89
2022/05/04 01:53:06;;;;;;;12.75;3.10;;;9.20;99.90;;;;;;4958496;28;20039;-89
2022/05/04 01:55:33;;;;;;;11.35;2.70;;;9.20;99.90;;;;;;4958457;28;20085;-89
2022/05/04 01:57:59;;;;;;;11.45;3.15;;;9.20;99.90;;;;;;4974310;28;20066;-89
2022/05/04 02:00:25;;;;;;;11.18;3.15;;;9.20;99.90;;;;;;4974390;28;20038;-89
2022/05/04 02:02:52;;;;;;;13.27;3.08;;;9.20;99.90;;;;;;4958265;28;20035;-89
2022/05/04 02:05:18;;;;;;;9.02;3.03;;;9.20;99.90;;;;;;4958341;28;20125;-89
2022/05/04 02:07:44;;;;;;;9.88;2.80;;;9.20;99.90;;;;;;4974302;28;20111;-89
2022/05/04 02:10:10;;;;;;;14.52;3.13;;;9.20;99.90;;;;;;4958294;28;20113;-89
2022/05/04 02:12:37;;;;;;;8.80;2.60;;;9.20;99.90;;;;;;4958106;28;20042;-89
2022/05/04 02:15:04;;;;;;;12.05;3.22;;;9.20;99.90;;;;;;4958310;28;20043;-89
2022/05/04 02:17:30;;;;;;;10.48;3.35;;;9.20;99.90;;;;;;4958140;28;20051;-89
2022/05/04 02:19:55;;;;;;;11.77;2.80;;;9.20;99.90;;;;;;4973923;28;20042;-89
2022/05/04 02:22:21;;;;;;;11.07;2.63;;;9.20;99.90;;;;;;4974456;28;20041;-89
2022/05/04 02:24:46;;;;;;;13.23;2.80;;;9.10;99.90;;;;;;4974582;28;20503;-89
2022/05/04 02:27:12;;;;;;;10.63;2.95;;;9.20;99.90;;;;;;4974320;28;20078;-89
2022/05/04 02:29:37;;;;;;;10.23;2.92;;;9.10;99.90;;;;;;4957931;28;20563;-89
2022/05/04 02:32:03;;;;;;;11.20;2.53;;;9.10;99.90;;;;;;4973733;28;20050;-89
2022/05/04 02:34:29;;;;;;;8.70;2.50;;;9.20;99.90;;;;;;4975298;28;20043;-89
2022/05/04 02:39:38;;;;;;;8.45;2.80;;;9.10;99.90;;;;;;4974080;28;20047;-89
2022/05/04 02:42:05;;;;;;;11.15;3.10;;;9.10;99.90;;;;;;4957493;28;20493;-89
2022/05/04 02:44:30;;;;;;;12.10;2.90;;;9.10;99.90;;;;;;4973911;28;20042;-89
2022/05/04 02:46:56;;;;;;;8.93;2.97;;;9.20;99.90;;;;;;4973928;28;20514;-89
2022/05/04 02:49:21;;;;;;;10.13;2.92;;;9.10;99.90;;;;;;4973903;28;20564;-89
2022/05/04 02:51:47;;;;;;;13.68;3.00;;;9.10;99.90;;;;;;4973432;28;20130;-89
2022/05/04 02:54:12;;;;;;;13.18;3.33;;;9.10;99.90;;;;;;4973696;28;20409;-89
2022/05/04 02:56:38;;;;;;;8.73;2.80;;;9.10;99.90;;;;;;4973637;28;20511;-89
2022/05/04 02:59:04;;;;;;;10.85;2.90;;;9.10;99.90;;;;;;4973515;28;20047;-89
2022/05/04 03:04:14;;;;;;;12.35;3.03;;;9.10;99.90;;;;;;4973491;28;20043;-89
2022/05/04 03:06:40;;;;;;;12.25;3.53;;;9.00;99.90;;;;;;4973202;28;20622;-89
2022/05/04 03:09:08;;;;;;;10.77;2.90;;;9.00;99.90;;;;;;4973486;28;20177;-89
2022/05/04 03:14:20;;;;;;;12.07;2.80;;;9.00;99.90;;;;;;4973379;28;20050;-89
2022/05/04 03:16:46;;;;;;;12.15;2.78;;;9.00;99.90;;;;;;4957164;28;20173;-89
2022/05/04 03:19:11;;;;;;;11.75;3.42;;;9.00;99.90;;;;;;4973104;28;20051;-89
2022/05/04 03:21:37;;;;;;;11.48;3.28;;;9.00;99.90;;;;;;4972944;28;20042;-89
2022/05/04 03:24:03;;;;;;;9.43;3.10;;;8.90;99.90;;;;;;4973286;28;20042;-89
2022/05/04 03:26:28;;;;;;;10.63;2.65;;;8.90;99.90;;;;;;4973277;28;20540;-89
2022/05/04 03:28:55;;;;;;;12.60;3.25;;;8.90;99.90;;;;;;4957085;28;20039;-89
2022/05/04 03:31:21;;;;;;;11.35;3.08;;;8.90;99.90;;;;;;4972824;28;20053;-89
2022/05/04 03:33:46;;;;;;;9.65;3.20;;;8.90;99.90;;;;;;4972640;28;20073;-89
2022/05/04 03:36:12;;;;;;;10.57;2.90;;;8.90;99.90;;;;;;4973312;28;20043;-90
2022/05/04 03:38:38;;;;;;;12.77;3.17;;;8.90;99.90;;;;;;4973088;28;20039;-89
2022/05/04 03:41:03;;;;;;;10.80;2.80;;;8.90;99.90;;;;;;4972820;28;20046;-89
2022/05/04 03:43:29;;;;;;;14.98;3.30;;;8.90;99.90;;;;;;4972668;28;20129;-89
2022/05/04 03:45:55;;;;;;;11.13;2.97;;;8.80;99.90;;;;;;4973106;28;20038;-89
2022/05/04 03:48:21;;;;;;;8.57;2.90;;;8.80;99.90;;;;;;4956791;28;20649;-89
2022/05/04 03:50:47;;;;;;;13.18;3.55;;;8.80;99.90;;;;;;4992196;28;20342;-90
2022/05/04 03:53:13;;;;;;;12.38;3.38;;;8.80;99.90;;;;;;4992969;28;20046;-90
2022/05/04 03:55:39;;;;;;;9.02;2.85;;;8.80;99.90;;;;;;4993623;28;20042;-90
2022/05/04 03:58:05;;;;;;;10.70;2.90;;;8.80;99.90;;;;;;4993345;28;20043;-90
2022/05/04 04:00:30;;;;;;;12.35;2.97;;;8.80;99.90;;;;;;4993241;28;20431;-90
2022/05/04 04:02:56;;;;;;;12.65;3.53;;;8.80;99.90;;;;;;4992697;28;20510;-90
2022/05/04 04:05:23;;;;;;;11.55;3.42;;;8.80;99.90;;;;;;4976327;28;20034;-90
2022/05/04 04:07:49;;;;;;;12.65;3.35;;;8.80;99.90;;;;;;4991994;28;20053;-90
2022/05/04 04:10:14;;;;;;;10.38;2.83;;;8.80;99.90;;;;;;4991841;28;20046;-90
2022/05/04 04:12:40;;;;;;;11.63;3.80;;;8.70;99.90;;;;;;4991588;28;20049;-89
2022/05/04 04:15:06;;;;;;;12.20;3.03;;;8.80;99.90;;;;;;4991693;28;20042;-90
2022/05/04 04:17:31;;;;;;;12.75;3.83;;;8.70;99.90;;;;;;4975215;28;20047;-90
2022/05/04 04:22:41;;;;;;;13.75;3.45;;;8.70;99.90;;;;;;4991780;28;20042;-90
2022/05/04 04:25:07;;;;;;;11.05;3.30;;;8.70;99.90;;;;;;4991763;28;20388;-90
2022/05/04 04:27:34;;;;;;;10.75;3.15;;;8.80;99.90;;;;;;4991755;28;20446;-90
2022/05/04 04:30:00;;;;;;;12.15;2.88;;;8.80;99.90;;;;;;4975040;28;20046;-90
2022/05/04 04:32:26;;;;;;;11.18;2.72;;;8.80;99.90;;;;;;4991355;28;20044;-90
2022/05/04 04:34:51;;;;;;;11.93;2.83;;;8.80;99.90;;;;;;4975255;28;20061;-90
2022/05/04 04:37:17;;;;;;;8.75;2.75;;;8.80;99.90;;;;;;4991571;28;20042;-90
2022/05/04 04:39:43;;;;;;;14.35;3.10;;;8.80;99.90;;;;;;4991724;28;20038;-90
2022/05/04 04:42:08;;;;;;;11.25;3.13;;;8.80;99.90;;;;;;4991068;28;20038;-90
2022/05/04 04:44:34;;;;;;;9.52;2.63;;;8.80;99.90;;;;;;4991426;28;20686;-89
2022/05/04 04:46:59;;;;;;;11.57;3.63;;;8.90;99.90;;;;;;4991478;28;20133;-90
2022/05/04 04:49:25;;;;;;;11.02;2.67;;;8.90;99.90;;;;;;4975202;28;20076;-90
2022/05/04 04:51:51;;;;;;;9.95;2.55;;;8.90;99.90;;;;;;4991196;28;20046;-90
2022/05/04 04:54:17;;;;;;;8.73;3.13;;;8.90;99.90;;;;;;4991192;28;20050;-90
2022/05/04 04:56:42;;;;;;;9.52;2.53;;;8.90;99.90;;;;;;4991350;28;20070;-90
2022/05/04 04:59:08;;;;;;;12.68;3.10;;;8.90;99.90;;;;;;4991246;28;20042;-90
2022/05/04 05:01:34;;;;;;;16.02;4.30;;;8.90;99.90;;;;;;4990821;28;20403;-90
2022/05/04 05:03:59;;;;;;;10.52;2.85;;;8.90;99.90;;;;;;4991213;28;20046;-90
2022/05/04 05:06:25;;;;;;;12.32;3.22;;;9.00;99.90;;;;;;4991330;28;20407;-90
2022/05/04 05:08:51;;;;;;;10.55;2.90;;;9.00;99.90;;;;;;4975029;28;20434;-90
2022/05/04 05:11:16;;;;;;;11.68;2.85;;;9.00;99.90;;;;;;4974633;28;20042;-90
2022/05/04 05:16:26;;;;;;;8.15;3.13;;;9.10;99.90;;;;;;4991345;28;20077;-90
2022/05/04 05:18:52;;;;;;;10.75;3.58;;;9.10;99.90;;;;;;4990808;28;20496;-89
2022/05/04 05:21:18;;;;;;;12.23;3.20;;;9.20;99.90;;;;;;4990647;28;20389;-90
2022/05/04 05:23:43;;;;;;;11.80;3.38;;;9.20;99.90;;;;;;4974905;28;20039;-90
2022/05/04 05:26:09;;;;;;;13.05;3.83;;;9.30;99.90;;;;;;4994338;28;20043;-90
2022/05/04 05:28:34;;;;;;;13.07;3.45;;;9.30;99.90;;;;;;4994881;28;20053;-90
2022/05/04 05:31:00;;;;;;;12.43;3.67;;;9.30;99.90;;;;;;4994776;28;20050;-90
2022/05/04 05:33:25;;;;;;;10.48;3.63;;;9.30;99.90;;;;;;4994646;28;20054;-90
2022/05/04 05:35:51;;;;;;;16.33;3.80;;;9.40;99.90;;;;;;4994726;28;20038;-90
2022/05/04 05:38:17;;;;;;;12.20;3.63;;;9.40;99.90;;;;;;4994805;28;20050;-90
2022/05/04 05:40:42;;;;;;;12.65;3.55;;;9.40;99.90;;;;;;4994047;28;20121;-90
2022/05/04 05:43:08;;;;;;;10.40;3.15;;;9.40;99.90;;;;;;4994361;28;20042;-90
2022/05/04 05:45:34;;;;;;;10.98;3.63;;;9.50;99.90;;;;;;4978049;28;20053;-90
2022/05/04 05:47:59;;;;;;;11.85;3.60;;;9.50;99.90;;;;;;4994314;28;20046;-90
2022/05/04 05:50:25;;;;;;;11.50;3.20;;;9.50;99.90;;;;;;4993972;28;20035;-90
2022/05/04 05:52:51;;;;;;;11.63;3.42;;;9.60;99.90;;;;;;4994317;28;20052;-90
2022/05/04 05:55:16;;;;;;;12.68;3.80;;;9.60;99.90;;;;;;4994524;28;20061;-90
2022/05/04 05:57:42;;;;;;;12.73;3.22;;;9.60;99.90;;;;;;4994306;28;20042;-90
2022/05/04 06:00:08;;;;;;;8.75;3.50;;;9.70;99.90;;;;;;4994219;28;20077;-90
2022/05/04 06:02:34;;;;;;;14.07;3.45;;;9.70;99.90;;;;;;4994005;28;20511;-90
2022/05/04 06:05:00;;;;;;;12.40;2.97;;;9.80;99.90;;;;;;4994167;28;20121;-90
2022/05/04 06:07:26;;;;;;;12.20;3.00;;;9.80;99.90;;;;;;4993979;28;20133;-90
2022/05/04 06:09:52;;;;;;;11.63;2.50;;;9.90;99.90;;;;;;4977873;28;20137;-90
2022/05/04 06:12:18;;;;;;;14.15;3.13;;;9.90;99.90;;;;;;4977475;28;20042;-90
2022/05/04 06:14:43;;;;;;;9.13;2.42;;;10.00;99.90;;;;;;4994015;28;20149;-90
2022/05/04 06:17:09;;;;;;;13.35;3.03;;;10.00;99.90;;;;;;4993863;28;20045;-90
2022/05/04 06:19:35;;;;;;;10.73;2.80;;;10.10;99.90;;;;;;4993859;28;20048;-90
2022/05/04 06:22:00;;;;;;;13.20;3.00;;;10.20;99.90;;;;;;4977185;28;20041;-90
2022/05/04 06:24:28;;;;;;;13.98;2.83;;;10.20;99.90;;;;;;4993624;28;20058;-90
2022/05/04 06:26:54;;;;;;;10.73;2.35;;;10.30;99.90;;;;;;4993542;28;20130;-90
2022/05/04 06:29:20;;;;;;;11.60;2.90;;;10.40;99.90;;;;;;4993810;28;20125;-90
2022/05/04 06:34:29;;;;;;;11.30;2.65;;;10.50;99.90;;;;;;4994025;28;20081;-90
2022/05/04 06:36:55;;;;;;;11.57;2.83;;;10.50;99.30;;;;;;4998962;28;20507;-89
2022/05/04 06:39:20;;;;;;;9.05;2.40;;;10.60;99.10;;;;;;5003840;28;20121;-90
2022/05/04 06:41:47;;;;;;;10.18;2.47;;;10.60;98.90;;;;;;4993383;28;20070;-90
2022/05/04 06:44:13;;;;;;;10.15;2.50;;;10.70;98.70;;;;;;5025964;28;20046;-91
2022/05/04 06:46:41;;;;;;;12.23;2.85;;;10.80;98.20;;;;;;4993219;28;20038;-90
2022/05/04 06:49:09;;;;;;;10.27;2.25;;;10.80;97.90;;;;;;5026139;28;20562;-91
2022/05/04 06:51:35;;;;;;;12.20;2.78;;;10.90;97.80;;;;;;5025622;28;20121;-90
2022/05/04 06:54:01;;;;;;;8.13;2.78;;;10.90;97.40;;;;;;4998097;28;20116;-91
2022/05/04 06:56:26;;;;;;;12.60;2.88;;;11.00;96.80;;;;;;5003530;28;20099;-90
2022/05/04 06:58:52;;;;;;;11.88;3.38;;;11.00;96.70;;;;;;5000838;28;20038;-89
2022/05/04 07:01:17;;;;;;;10.43;2.58;;;11.10;96.80;;;;;;5003757;28;20038;-90
2022/05/04 07:03:43;;;;;;;10.48;2.70;;;11.20;96.70;;;;;;5000200;28;20049;-90
2022/05/04 07:06:08;;;;;;;15.65;2.95;;;11.30;96.30;;;;;;4992664;28;20038;-89
2022/05/04 07:08:34;;;;;;;9.90;2.80;;;11.40;96.20;;;;;;4976569;28;20168;-89
2022/05/04 07:11:00;;;;;;;9.52;2.60;;;11.40;95.70;;;;;;4992685;28;20042;-89
2022/05/04 07:13:25;;;;;;;11.35;3.17;;;11.40;95.60;;;;;;4992723;28;20047;-89
2022/05/04 07:15:51;;;;;;;10.35;2.60;;;11.50;95.60;;;;;;4992951;28;20056;-89
2022/05/04 07:18:16;;;;;;;10.77;2.67;;;11.60;95.50;;;;;;4976371;28;20050;-89
2022/05/04 07:20:42;;;;;;;8.43;2.53;;;11.70;95.00;;;;;;4976337;28;20125;-89
2022/05/04 07:23:08;;;;;;;12.18;2.80;;;11.70;94.70;;;;;;4976166;28;20038;-89
2022/05/04 07:25:33;;;;;;;9.18;2.35;;;11.80;93.90;;;;;;4993016;28;20046;-89
2022/05/04 07:27:59;;;;;;;8.85;2.33;;;11.90;94.00;;;;;;4976354;28;20034;-90
2022/05/04 07:30:25;;;;;;;12.93;2.70;;;11.90;93.90;;;;;;4976208;28;20041;-89
2022/05/04 07:32:50;;;;;;;11.02;2.90;;;12.00;93.40;;;;;;5008743;28;20046;-89
2022/05/04 07:35:17;;;;;;;12.77;3.15;;;12.10;93.20;;;;;;4992585;28;20129;-90
2022/05/04 07:37:43;;;;;;;12.57;3.33;;;12.10;93.60;;;;;;5025026;28;20050;-89
2022/05/04 07:42:54;;;;;;;12.68;2.97;;;12.10;92.10;;;;;;4995459;28;20042;-89
2022/05/04 07:45:19;;;;;;;9.90;2.75;;;12.10;92.30;;;;;;4990130;28;20046;-89
2022/05/04 07:47:46;;;;;;;11.27;2.97;;;12.20;92.20;;;;;;4990350;28;20038;-88
2022/05/04 07:50:12;;;;;;;11.35;3.03;;;12.20;91.80;;;;;;4999303;28;20038;-89
2022/05/04 07:52:39;;;;;;;17.35;3.38;;;12.30;91.60;;;;;;5001793;28;20045;-89
2022/05/04 07:55:06;;;;;;;13.77;3.63;;;12.40;91.70;;;;;;5002625;28;20183;-89
2022/05/04 07:57:32;;;;;;;12.30;3.20;;;12.50;91.00;;;;;;4985185;28;20415;-89
2022/05/04 08:05:31;;;;;;;10.73;3.50;;;12.70;90.50;;;;;;4991756;28;20038;-89
2022/05/04 08:07:58;;;;;;;12.95;3.63;;;12.70;89.30;;;;;;4991578;28;20125;-89
2022/05/04 08:10:24;;;;;;;16.40;3.85;;;12.80;89.70;;;;;;5024123;28;20057;-89
2022/05/04 08:12:50;;;;;;;11.57;3.67;;;12.80;88.00;;;;;;5007799;28;20046;-89
2022/05/04 08:15:15;;;;;;;10.10;3.33;;;12.80;86.40;;;;;;4991382;28;20111;-89
2022/05/04 08:17:41;;;;;;;11.85;3.55;;;12.80;86.40;;;;;;4991352;28;20046;-88
2022/05/04 08:20:07;;;;;;;11.68;3.90;;;12.80;84.50;;;;;;4991126;28;20045;-89
2022/05/04 08:22:32;;;;;;;11.00;3.67;;;12.70;84.10;;;;;;4974749;28;20042;-90
2022/05/04 08:24:58;;;;;;;13.32;3.85;;;12.50;83.70;;;;;;4975039;28;20042;-90
2022/05/04 08:27:24;;;;;;;13.23;3.40;;;12.50;82.10;;;;;;4974540;28;20047;-89
2022/05/04 08:29:49;;;;;;;12.30;3.53;;;12.50;84.00;;;;;;4990983;28;20042;-89
2022/05/04 08:32:15;;;;;;;12.27;3.95;;;12.50;85.60;;;;;;4989611;28;20050;-90
2022/05/04 08:34:41;;;;;;;13.48;3.55;;;12.60;87.20;;;;;;4991158;28;20129;-90
2022/05/04 08:37:07;;;;;;;12.88;3.55;;;12.60;86.60;;;;;;4975080;28;20034;-90
2022/05/04 08:39:32;;;;;;;10.63;3.60;;;12.60;86.80;;;;;;4991459;28;20057;-89
2022/05/04 08:42:00;;;;;;;9.73;3.80;;;12.50;86.00;;;;;;4990765;28;20034;-90
2022/05/04 08:44:27;;;;;;;11.23;3.60;;;12.40;86.40;;;;;;4991221;28;20048;-90
2022/05/04 08:46:55;;;;;;;13.98;3.90;;;12.30;85.50;;;;;;4991397;28;20443;-90
2022/05/04 08:49:22;;;;;;;8.82;3.40;;;12.30;85.60;;;;;;4975053;28;20035;-90
2022/05/04 08:51:49;;;;;;;12.65;4.18;;;12.30;88.40;;;;;;4991471;28;20404;-90
2022/05/04 08:54:15;;;;;;;10.73;3.40;;;12.20;85.00;;;;;;4975035;28;20046;-91
2022/05/04 08:56:40;;;;;;;12.15;3.75;;;12.30;85.40;;;;;;4990921;28;20042;-90
2022/05/04 08:59:07;;;;;;;11.85;3.75;;;12.50;86.70;;;;;;4992739;28;20078;-91
2022/05/04 09:01:36;;;;;;;12.60;3.47;;;12.60;84.20;;;;;;4995027;28;20049;-90
2022/05/04 09:04:02;;;;;;;13.93;4.07;;;12.60;86.90;;;;;;5027955;28;20496;-90
2022/05/04 09:06:31;;;;;;;10.32;3.33;;;12.80;88.80;;;;;;5011472;28;20165;-91
2022/05/04 09:09:06;;;;;;;12.57;3.92;;;12.80;89.60;;;;;;5027746;28;20042;-91
2022/05/04 09:11:32;;;;;;;10.50;3.85;;;12.80;86.00;;;;;;4998261;28;20088;-90
2022/05/04 09:13:58;;;;;;;12.75;3.80;;;12.90;85.10;;;;;;5027563;28;20537;-90
2022/05/04 09:16:24;;;;;;;10.95;3.75;;;12.90;85.30;;;;;;4994773;28;20050;-90
2022/05/04 09:18:50;;;;;;;13.40;4.07;;;12.90;86.70;;;;;;4994538;28;20185;-90
2022/05/04 09:21:21;;;;;;;14.45;5.28;;;12.70;83.70;;;;;;4994669;28;20074;-91
2022/05/04 09:23:52;;;;;;;13.05;4.40;;;12.60;80.70;;;;;;4978263;28;20120;-91
2022/05/04 09:26:22;;;;;;;10.50;4.13;;;12.40;78.80;;;;;;4994848;28;20031;-90
2022/05/04 09:29:01;;;;;;;13.88;4.68;;;12.20;79.60;;;;;;4994596;28;20086;-90
2022/05/04 09:31:30;;;;;;;12.65;4.35;;;12.30;88.90;;;;;;4977906;28;20057;-91
2022/05/04 09:33:58;;;;;;;11.73;4.03;;;12.50;85.10;;;;;;5027634;28;20069;-91
2022/05/04 09:36:35;;;;;;;10.25;3.75;;;12.60;84.40;;;;;;4994228;28;20570;-91
2022/05/04 09:45:15;;;;;;;15.18;4.13;;;12.30;82.20;;;;;;4994293;28;20078;-90
2022/05/04 09:47:44;;;;;;;12.43;4.07;;;12.20;86.00;;;;;;5026912;28;20515;-90
2022/05/04 09:50:14;;;;;;;13.13;4.57;;;12.40;84.30;;;;;;5026806;28;20044;-91
2022/05/04 09:52:45;;;;;;;13.52;4.93;;;12.50;89.50;;;;;;5026839;28;20084;-90
2022/05/04 09:55:23;;;;;;;12.73;4.47;;;12.70;91.40;;;;;;5027140;28;20570;-90
2022/05/04 09:57:50;;;;;;;12.38;4.32;;;12.80;90.30;;;;;;5026764;28;20042;-91
2022/05/04 10:00:19;;;;;;;12.88;4.25;;;12.80;86.60;;;;;;5026830;28;20381;-91
2022/05/04 10:02:46;;;;;;;11.20;3.30;;;12.80;84.70;;;;;;5001421;28;20068;-92
2022/05/04 10:05:13;;;;;;;12.18;3.67;;;12.90;84.20;;;;;;5029639;28;20053;-91
2022/05/04 10:07:40;;;;;;;13.50;4.05;;;13.00;81.90;;;;;;5013593;28;20467;-91
2022/05/04 10:10:07;;;;;;;12.02;4.75;;;13.10;83.70;;;;;;4996371;28;20045;-91
2022/05/04 10:12:38;;;;;;;10.25;3.90;;;13.20;88.40;;;;;;5013293;28;20452;-92
2022/05/04 10:15:07;;;;;;;11.95;3.85;;;13.50;85.70;;;;;;4997152;28;20511;-92
2022/05/04 10:17:34;;;;;;;13.57;4.60;;;13.80;82.40;;;;;;4996849;28;20045;-92
2022/05/04 10:20:07;;;;;;;13.98;4.18;;;14.10;80.30;;;;;;5012795;28;20500;-91
2022/05/04 10:22:57;;;;;;;11.55;4.18;;;14.30;76.90;;;;;;4996634;28;20121;-91
2022/05/04 10:25:24;;;;;;;11.00;3.67;;;14.40;74.10;;;;;;5013569;28;20121;-91
2022/05/04 10:27:50;;;;;;;11.73;4.35;;;14.30;74.50;;;;;;5013019;28;20415;-91
2022/05/04 10:30:31;;;;;;;11.77;4.15;;;14.30;72.40;;;;;;4996186;28;20176;-92
2022/05/04 10:32:58;;;;;;;10.45;3.60;;;14.30;69.80;;;;;;5013345;28;20411;-91
2022/05/04 10:35:36;;;;;;;13.80;3.97;;;14.20;70.00;;;;;;4996509;28;20052;-92
2022/05/04 10:38:01;;;;;;;11.00;4.10;;;14.20;68.90;;;;;;4996535;28;20042;-91
2022/05/04 10:40:30;;;;;;;11.20;4.25;;;14.20;68.90;;;;;;5002747;28;20053;-91
2022/05/04 10:43:06;;;;;;;10.73;4.40;;;14.30;70.00;;;;;;4999833;28;20044;-92
2022/05/04 10:45:34;;;;;;;10.75;4.07;;;14.50;70.60;;;;;;4997526;28;20037;-92
2022/05/04 10:48:18;;;;;;;11.15;3.80;;;14.80;70.50;;;;;;5025958;28;20407;-92
2022/05/04 10:50:56;;;;;;;13.80;4.88;;;14.90;69.30;;;;;;4998410;28;20046;-92
2022/05/04 10:53:27;;;;;;;11.65;3.72;;;14.90;68.40;;;;;;4984741;28;20038;-92
2022/05/04 10:56:03;;;;;;;14.37;3.97;;;14.90;67.80;;;;;;5000693;28;20048;-92
2022/05/04 10:58:55;;;;;;;14.10;4.55;;;15.00;69.40;;;;;;4984963;28;20034;-91
2022/05/04 11:01:32;;;;;;;12.10;4.40;;;15.20;70.30;;;;;;5027211;28;20038;-92
2022/05/04 11:04:13;;;;;;;10.75;3.65;;;15.40;72.10;;;;;;4986098;28;20096;-92
2022/05/04 11:06:50;;;;;;;12.38;3.80;;;15.60;73.10;;;;;;4999463;28;20061;-92
2022/05/04 11:09:18;;;;;;;12.43;4.18;;;15.90;69.40;;;;;;4999775;28;20388;-92
2022/05/04 11:11:49;;;;;;;10.57;3.63;;;16.20;67.70;;;;;;5001337;28;20111;-92
2022/05/04 11:14:16;;;;;;;15.45;4.40;;;16.30;66.50;;;;;;5010831;28;20049;-92
2022/05/04 11:16:43;;;;;;;13.63;4.25;;;16.30;64.30;;;;;;5010027;28;20636;-91
2022/05/04 11:19:12;;;;;;;13.18;3.80;;;16.30;63.70;;;;;;5008737;28;20554;-92
2022/05/04 11:21:38;;;;;;;12.68;4.20;;;16.40;64.30;;;;;;4992132;28;20096;-90
2022/05/04 11:24:06;;;;;;;11.10;3.50;;;16.40;62.70;;;;;;5008834;28;20515;-90
2022/05/04 11:26:36;;;;;;;12.68;4.50;;;16.50;61.70;;;;;;4992537;28;20046;-90
2022/05/04 11:29:13;;;;;;;10.00;3.80;;;16.50;60.60;;;;;;4976088;28;20042;-90
2022/05/04 11:32:09;;;;;;;12.95;3.80;;;16.40;60.10;;;;;;5024900;28;20124;-90
2022/05/04 11:34:40;;;;;;;11.35;3.85;;;16.30;60.10;;;;;;4989212;28;20573;-90
2022/05/04 11:37:11;;;;;;;12.93;3.85;;;16.30;62.00;;;;;;5008238;28;20050;-90
2022/05/04 11:39:39;;;;;;;9.15;3.47;;;16.50;60.50;;;;;;5024794;28;20097;-90
2022/05/04 11:42:09;;;;;;;10.05;3.63;;;16.50;59.00;;;;;;4975487;28;20504;-90
2022/05/04 11:44:36;;;;;;;9.95;3.38;;;16.50;58.40;;;;;;5008201;28;20129;-90
2022/05/04 11:47:02;;;;;;;12.07;3.78;;;16.60;59.10;;;;;;4991871;28;20470;-90
2022/05/04 11:49:31;;;;;;;9.90;3.50;;;16.30;58.60;;;;;;5024990;28;20439;-90
2022/05/04 11:51:58;;;;;;;14.05;3.67;;;16.30;58.70;;;;;;5024535;28;20042;-90
2022/05/04 11:54:24;;;;;;;8.80;3.13;;;16.50;59.90;;;;;;4992293;28;20050;-90
2022/05/04 11:56:50;;;;;;;12.40;3.60;;;16.60;58.80;;;;;;5024570;28;20046;-90
2022/05/04 11:59:16;;;;;;;10.52;3.53;;;16.60;58.50;;;;;;5027384;28;20037;-90
2022/05/04 12:01:43;;;;;;;12.27;3.70;;;16.50;59.80;;;;;;5011249;28;20038;-91
2022/05/04 12:04:11;;;;;;;11.35;3.92;;;16.60;59.30;;;;;;5011170;28;20369;-91
2022/05/04 12:06:37;;;;;;;10.88;3.70;;;16.60;58.30;;;;;;4995122;28;20057;-90
2022/05/04 12:09:04;;;;;;;11.40;3.78;;;16.70;59.80;;;;;;4991846;28;20495;-91
2022/05/04 12:11:31;;;;;;;11.75;3.90;;;16.70;58.50;;;;;;4975142;28;20038;-90
2022/05/04 12:13:58;;;;;;;9.38;3.45;;;16.80;59.10;;;;;;4975167;28;20093;-90
2022/05/04 12:16:23;;;;;;;12.55;3.40;;;16.80;58.20;;;;;;5024807;28;20042;-90
2022/05/04 12:18:49;;;;;;;10.57;3.42;;;17.00;57.20;;;;;;5010625;28;20526;-90
2022/05/04 12:21:22;;;;;;;12.77;3.40;;;17.20;56.00;;;;;;5010562;28;20120;-91
2022/05/04 12:23:52;;;;;;;11.60;3.20;;;17.50;56.40;;;;;;4994590;28;20137;-91
2022/05/04 12:26:18;;;;;;;11.80;3.50;;;17.80;56.70;;;;;;5000084;28;20089;-89
2022/05/04 12:34:16;;;;;;;9.35;3.60;;;18.20;54.20;;;;;;5007731;28;20247;-90
2022/05/04 12:36:46;;;;;;;9.20;2.83;;;18.30;54.60;;;;;;4992220;28;20038;-90
2022/05/04 12:39:12;;;;;;;11.55;3.10;;;18.50;54.60;;;;;;5007336;28;20057;-91
2022/05/04 12:41:37;;;;;;;13.10;3.22;;;18.80;55.00;;;;;;4996045;28;20034;-91
2022/05/04 12:44:06;;;;;;;11.68;3.00;;;18.90;53.60;;;;;;4990252;28;20030;-91
2022/05/04 12:46:32;;;;;;;10.68;3.25;;;19.20;52.60;;;;;;4995094;28;20073;-91
2022/05/04 12:48:58;;;;;;;8.35;2.55;;;19.30;52.60;;;;;;4991581;28;20833;-90
2022/05/04 12:51:24;;;;;;;10.68;2.97;;;19.40;52.30;;;;;;4990495;28;20042;-91
2022/05/04 12:53:51;;;;;;;8.60;2.55;;;19.70;50.60;;;;;;4990964;28;20038;-91
2022/05/04 12:59:02;;;;;;;10.65;2.90;;;20.10;51.80;;;;;;4990437;28;20054;-91
2022/05/04 13:01:32;;;;;;;9.23;2.92;;;20.40;51.70;;;;;;4990590;28;20114;-90
2022/05/04 13:03:59;;;;;;;9.90;2.72;;;20.60;51.00;;;;;;4990868;28;20076;-92
2022/05/04 13:06:26;;;;;;;11.43;3.35;;;20.70;50.80;;;;;;5000313;28;20050;-90
2022/05/04 13:08:52;;;;;;;9.43;2.90;;;20.90;50.50;;;;;;5023115;28;20077;-91
2022/05/04 13:11:20;;;;;;;11.25;2.90;;;21.10;49.10;;;;;;4973687;28;20408;-90
2022/05/04 13:13:46;;;;;;;9.13;2.50;;;21.00;48.10;;;;;;5023703;28;20038;-91
2022/05/04 13:16:12;;;;;;;10.07;2.88;;;20.90;47.20;;;;;;5023845;28;20450;-91
2022/05/04 13:18:39;;;;;;;10.48;2.90;;;20.80;48.60;;;;;;4974207;28;20094;-91
2022/05/04 13:21:05;;;;;;;10.20;2.90;;;20.70;46.10;;;;;;4976225;28;20042;-91